Portada
METAR-TAF:

METAR-TAF

Aeroports :

Tallahassee Regional Airport

Tallahassee, Florida, Estats Units d'Amèrica

latitud: 30-23-35N, longitud: 084-21-12W, altitud: 24 m

Observació

L'informe es va fer fa 15 minuts, a les 05:53 UTC
Vent calma
Temperatura 26°C
Humitat 79%
Pressió 1016 hPa
Visibilitat: 16.1 km
Cel clar

METAR: KTLH 160553Z AUTO 00000KT 10SM CLR 26/22 A2999 RMK AO2 SLP154 T02560217 10311 20250 56006 $

Hora: 02:08 (06:08 UTC)

Pronòstic

L'informe es va fer fa 48 minuts, a les 05:20 UTC
Pronòstic vàlid del 16 a les 06 UTC al 17 a les 06 UTC
Vent 4 kt del Est/Nord-Est
Visibilitat: 10 km
Escasses núvols a una alçada de 25000 ft
A partir de les 16 a les 1400 UTC
Vent 8 kt del Nord/Nord-Est
Visibilitat: 10 km
Núvols disperses a una alçada de 4500 ft
A partir de les 17 a les 0000 UTC
Vent kt del Nord
Visibilitat: 10 km
Cel clar

TAF: KTLH 160520Z 1606/1706 07004KT P6SM FEW250 FM161400 03008KT P6SM SCT045 FM170000 00000KT P6SM SKC

Observacions i pronòstics meteorològics de més de 4000 aeroports (METAR i TAF).

Les estacions disponibles són els punts grocs i vermells al mapa.

Posi el ratolí al punt desitjat per veure el nom de l'estació.

Feu clic per veure les observacions i els pronòstics meteorològics.

Per canviar el mapa: feu clic els botons verds amb una creu de color negre per apropar; al botó verd amb un guió per allunyar la imatge; o en les fletxes verdes per a mapes adjacents.


METAR-TAF: